Time;durP1;ratioP1;P1;durP2;ratioP2;P2;SDS_P1;SDS_P2;PMS_P1;PMS_P2;Temp;Humidity;BMP_temperature;BMP_pressure;BME280_temperature;BME280_humidity;BME280_pressure;Samples;Min_cycle;Max_cycle;Signal;HPM_P1;HPM_P2
2023/10/21 00:00:34;;;;;;;7.28;4.57;;;;;;;;;;5070509;28;20555;-65
2023/10/21 00:03:01;;;;;;;9.00;5.70;;;;;;;;;;5054588;28;20079;-66
2023/10/21 00:05:27;;;;;;;9.07;5.43;;;;;;;;;;5059992;28;20051;-66
2023/10/21 00:07:53;;;;;;;6.70;5.05;;;;;;;;;;5053787;28;20072;-66
2023/10/21 00:10:19;;;;;;;6.45;4.88;;;;;;;;;;5077202;28;20096;-66
2023/10/21 00:12:46;;;;;;;7.35;4.90;;;;;;;;;;5054353;28;20079;-66
2023/10/21 00:15:12;;;;;;;10.77;5.43;;;;;;;;;;5068010;28;20466;-65
2023/10/21 00:17:38;;;;;;;6.53;5.47;;;;;;;;;;5053588;28;20142;-66
2023/10/21 00:20:06;;;;;;;8.48;4.82;;;;;;;;;;5053566;28;20044;-66
2023/10/21 00:22:32;;;;;;;6.18;4.93;;;;;;;;;;5053551;28;20059;-65
2023/10/21 00:25:00;;;;;;;6.68;4.47;;;;;;;;;;5053557;28;20048;-67
2023/10/21 00:27:26;;;;;;;6.68;4.85;;;;;;;;;;5068621;28;20051;-66
2023/10/21 00:29:53;;;;;;;6.00;4.57;;;;;;;;;;5070749;28;20106;-65
2023/10/21 00:32:19;;;;;;;7.28;4.57;;;;;;;;;;5067814;28;20036;-65
2023/10/21 00:34:45;;;;;;;6.57;4.65;;;;;;;;;;5075112;28;20105;-66
2023/10/21 00:37:11;;;;;;;7.38;5.60;;;;;;;;;;5072900;28;20115;-67
2023/10/21 00:39:38;;;;;;;5.40;4.78;;;;;;;;;;5074902;28;20069;-67
2023/10/21 00:42:05;;;;;;;9.65;5.50;;;;;;;;;;5072972;28;20437;-67
2023/10/21 00:44:31;;;;;;;7.40;4.70;;;;;;;;;;5057936;28;20047;-67
2023/10/21 00:47:01;;;;;;;11.00;4.88;;;;;;;;;;5053821;28;20059;-66
2023/10/21 00:49:30;;;;;;;6.35;4.85;;;;;;;;;;5065135;28;20037;-66
2023/10/21 00:51:57;;;;;;;6.93;4.10;;;;;;;;;;5059260;28;20170;-66
2023/10/21 00:54:25;;;;;;;7.55;4.63;;;;;;;;;;5059425;28;20040;-65
2023/10/21 00:56:51;;;;;;;8.38;4.53;;;;;;;;;;5074567;28;20156;-66
2023/10/21 00:59:18;;;;;;;8.07;4.82;;;;;;;;;;5078625;28;20047;-66
2023/10/21 01:01:44;;;;;;;5.95;4.50;;;;;;;;;;5079911;28;20479;-65
2023/10/21 01:04:10;;;;;;;7.65;5.00;;;;;;;;;;5066668;28;20411;-64
2023/10/21 01:06:37;;;;;;;6.95;4.15;;;;;;;;;;5067003;28;20102;-65
2023/10/21 01:09:03;;;;;;;7.38;4.03;;;;;;;;;;5059134;28;20035;-66
2023/10/21 01:11:29;;;;;;;8.73;5.15;;;;;;;;;;5064763;28;20048;-65
2023/10/21 01:13:56;;;;;;;6.22;4.80;;;;;;;;;;5066459;28;20118;-66
2023/10/21 01:16:22;;;;;;;6.53;4.50;;;;;;;;;;5071427;28;20040;-66
2023/10/21 01:18:48;;;;;;;7.28;4.55;;;;;;;;;;5071989;28;20082;-66
2023/10/21 01:21:15;;;;;;;5.00;3.85;;;;;;;;;;5070348;28;20119;-66
2023/10/21 01:23:41;;;;;;;9.75;4.60;;;;;;;;;;5068654;28;20132;-66
2023/10/21 01:26:07;;;;;;;8.23;4.28;;;;;;;;;;5059622;28;20044;-64
2023/10/21 01:28:34;;;;;;;10.50;4.93;;;;;;;;;;5075560;28;20044;-66
2023/10/21 01:31:00;;;;;;;6.63;3.83;;;;;;;;;;5088355;28;20051;-66
2023/10/21 01:33:26;;;;;;;8.57;4.40;;;11.60;99.90;;;;;;5075727;28;20453;-66
2023/10/21 01:35:52;;;;;;;9.70;4.70;;;11.30;99.90;;;;;;5074064;28;20040;-65
2023/10/21 01:38:18;;;;;;;6.55;3.67;;;11.30;99.90;;;;;;5076439;28;20032;-66
2023/10/21 01:40:45;;;;;;;6.10;3.67;;;;;;;;;;5069801;28;20492;-66
2023/10/21 01:43:11;;;;;;;5.25;3.95;;;;;;;;;;5073654;28;20033;-66
2023/10/21 01:45:38;;;;;;;5.05;3.78;;;;;;;;;;5060986;28;20054;-65
2023/10/21 01:48:04;;;;;;;8.25;4.68;;;;;;;;;;5072723;28;20462;-65
2023/10/21 01:50:31;;;;;;;5.20;3.70;;;;;;;;;;5067587;28;20071;-66
2023/10/21 01:52:57;;;;;;;5.55;3.72;;;;;;;;;;5068748;28;20055;-65
2023/10/21 01:55:23;;;;;;;7.22;3.50;;;;;;;;;;5079148;28;20196;-66
2023/10/21 01:57:50;;;;;;;7.00;4.28;;;;;;;;;;5070313;28;20123;-65
2023/10/21 02:00:19;;;;;;;6.10;4.05;;;;;;;;;;5072862;28;20284;-65
2023/10/21 02:02:52;;;;;;;5.68;3.88;;;;;;;;;;5068911;28;20497;-65
2023/10/21 02:05:18;;;;;;;;;;;;;;;;;;5070319;28;20402;-65
2023/10/21 02:07:44;;;;;;;5.78;3.90;;;;;;;;;;5064122;28;19916;-66
2023/10/21 02:10:11;;;;;;;10.63;4.90;;;;;;;;;;5068522;28;20040;-66
2023/10/21 02:12:37;;;;;;;6.53;3.85;;;;;;;;;;5070902;28;20036;-66
2023/10/21 02:15:03;;;;;;;4.63;3.88;;;;;;;;;;5068383;28;20067;-66
2023/10/21 02:17:29;;;;;;;6.88;4.10;;;;;;;;;;5060130;28;20071;-67
2023/10/21 02:19:56;;;;;;;7.38;4.60;;;;;;;;;;5068546;28;20039;-65
2023/10/21 02:22:26;;;;;;;7.97;5.07;;;;;;;;;;5050941;28;20048;-64
2023/10/21 02:24:55;;;;;;;6.72;4.03;;;;;;;;;;5060627;28;20416;-65
2023/10/21 02:27:22;;;;;;;5.60;3.38;;;;;;;;;;5071138;28;20041;-64
2023/10/21 02:29:48;;;;;;;8.15;5.40;;;;;;;;;;5051716;28;20076;-65
2023/10/21 02:32:15;;;;;;;6.28;3.78;;;;;;;;;;5050819;28;20056;-65
2023/10/21 02:34:41;;;;;;;6.22;3.95;;;;;;;;;;5068852;28;20047;-65
2023/10/21 02:37:09;;;;;;;5.68;3.83;;;;;;;;;;5068533;28;20064;-65
2023/10/21 02:39:35;;;;;;;6.65;3.70;;;;;;;;;;5069740;28;20036;-64
2023/10/21 02:42:01;;;;;;;8.90;4.40;;;;;;;;;;5070864;28;20055;-66
2023/10/21 02:44:27;;;;;;;7.30;4.63;;;;;;;;;;5081254;28;20036;-65
2023/10/21 02:46:53;;;;;;;7.10;4.15;;;;;;;;;;5073195;28;20498;-65
2023/10/21 02:49:20;;;;;;;6.93;4.13;;;;;;;;;;5086595;28;20040;-66
2023/10/21 02:51:46;;;;;;;5.63;3.67;;;;;;;;;;5069248;28;20039;-66
2023/10/21 02:54:12;;;;;;;6.30;3.72;;;;;;;;;;5068922;28;20033;-66
2023/10/21 02:56:41;;;;;;;6.88;3.97;;;;;;;;;;5051824;28;20056;-66
2023/10/21 02:59:07;;;;;;;9.35;4.25;;;;;;;;;;5069319;28;20123;-65
2023/10/21 03:01:33;;;;;;;10.68;4.07;;;;;;;;;;5064835;28;20037;-64
2023/10/21 03:03:59;;;;;;;7.53;4.63;;;;;;;;;;5073451;28;20032;-65
2023/10/21 03:06:26;;;;;;;5.50;3.53;;;;;;;;;;5060644;28;20032;-65
2023/10/21 03:08:52;;;;;;;4.80;3.53;;;;;;;;;;5069150;28;20044;-65
2023/10/21 03:11:18;;;;;;;5.30;4.10;;;;;;;;;;5070895;28;20044;-64
2023/10/21 03:13:44;;;;;;;7.85;4.40;;;;;;;;;;5064319;28;20037;-65
2023/10/21 03:16:14;;;;;;;7.03;3.95;;;;;;;;;;5051103;28;20084;-64
2023/10/21 03:18:40;;;;;;;8.40;3.72;;;;;;;;;;5062075;28;20129;-65
2023/10/21 03:21:07;;;;;;;6.32;3.90;;;;;;;;;;5062846;28;20435;-66
2023/10/21 03:23:34;;;;;;;4.43;3.00;;;;;;;;;;5074413;28;20533;-65
2023/10/21 03:26:03;;;;;;;6.28;3.28;;;;;;;;;;5060898;28;20041;-66
2023/10/21 03:28:29;;;;;;;9.98;4.68;;;;;;;;;;5077997;28;20044;-66
2023/10/21 03:30:59;;;;;;;6.70;3.58;;;;;;;;;;5069661;28;20048;-66
2023/10/21 03:33:25;;;;;;;5.90;3.45;;;;;;;;;;5046300;28;20044;-66
2023/10/21 03:35:55;;;;;;;4.88;3.13;;;;;;;;;;5072942;28;20048;-64
2023/10/21 03:38:21;;;;;;;5.97;3.97;;;;;;;;;;5072310;28;20036;-65
2023/10/21 03:40:57;;;;;;;5.72;3.40;;;;;;;;;;5074461;28;20076;-65
2023/10/21 03:43:24;;;;;;;6.53;3.47;;;;;;;;;;5049212;28;20086;-64
2023/10/21 03:45:51;;;;;;;4.88;2.92;;;;;;;;;;5068200;28;20511;-66
2023/10/21 03:48:17;;;;;;;5.20;3.08;;;;;;;;;;5065479;28;20399;-66
2023/10/21 03:50:43;;;;;;;6.03;3.47;;;;;;;;;;5072021;28;20045;-65
2023/10/21 03:53:09;;;;;;;6.32;3.65;;;;;;;;;;5075510;28;20037;-66
2023/10/21 03:55:35;;;;;;;8.43;3.20;;;;;;;;;;5082329;28;20507;-66
2023/10/21 03:58:01;;;;;;;4.72;3.20;;;;;;;;;;5078923;28;20037;-66
2023/10/21 04:00:27;;;;;;;3.58;2.35;;;;;;;;;;5077671;28;20239;-66
2023/10/21 04:02:54;;;;;;;10.68;3.20;;;;;;;;;;5077004;28;20822;-65
2023/10/21 04:05:20;;;;;;;4.05;3.20;;;;;;;;;;5067195;28;20052;-67
2023/10/21 04:07:46;;;;;;;5.03;3.28;;;;;;;;;;5071864;28;20032;-65
2023/10/21 04:10:12;;;;;;;5.82;3.53;;;;;;;;;;5032969;28;20162;-67
2023/10/21 04:12:39;;;;;;;3.67;2.80;;;;;;;;;;5062624;28;20043;-65
2023/10/21 04:15:07;;;;;;;5.05;2.50;;;;;;;;;;5065937;28;20040;-66
2023/10/21 04:17:34;;;;;;;6.97;2.97;;;;;;;;;;5052464;28;20033;-66
2023/10/21 04:20:00;;;;;;;2.75;2.15;;;;;;;;;;5070421;28;20044;-66
2023/10/21 04:22:26;;;;;;;4.85;3.03;;;;;;;;;;5069273;28;20505;-66
2023/10/21 04:24:52;;;;;;;3.97;2.47;;;;;;;;;;5069314;28;20040;-65
2023/10/21 04:27:18;;;;;;;4.85;3.75;;;;;;;;;;5051151;28;20036;-65
2023/10/21 04:29:45;;;;;;;4.15;2.80;;;;;;;;;;5069912;28;20036;-64
2023/10/21 04:32:11;;;;;;;4.07;2.45;;;;;;;;;;5053407;28;20496;-66
2023/10/21 04:34:37;;;;;;;5.80;3.22;;;;;;;;;;5067665;28;20040;-65
2023/10/21 04:37:03;;;;;;;5.38;3.05;;;;;;;;;;5052507;28;20037;-65
2023/10/21 04:39:29;;;;;;;6.88;2.83;;;;;;;;;;5064408;28;20052;-66
2023/10/21 04:41:56;;;;;;;5.97;3.47;;;;;;;;;;5069695;28;20411;-66
2023/10/21 04:44:22;;;;;;;5.32;2.90;;;;;;;;;;5068777;28;20510;-66
2023/10/21 04:46:48;;;;;;;5.93;2.60;;;;;;;;;;5021393;28;20492;-66
2023/10/21 04:49:14;;;;;;;4.72;2.40;;;;;;;;;;5063507;28;20119;-65
2023/10/21 04:51:41;;;;;;;4.82;2.88;;;;;;;;;;5069859;28;20044;-66
2023/10/21 04:54:09;;;;;;;7.13;3.47;;;;;;;;;;5069747;28;20048;-65
2023/10/21 04:56:36;;;;;;;5.55;3.22;;;;;;;;;;5059807;28;20448;-66
2023/10/21 04:59:02;;;;;;;6.75;2.83;;;;;;;;;;5069699;28;20076;-66
2023/10/21 05:01:28;;;;;;;4.60;3.20;;;;;;;;;;5036161;28;20119;-65
2023/10/21 05:03:54;;;;;;;4.63;3.15;;;;;;;;;;5056974;28;20385;-65
2023/10/21 05:06:20;;;;;;;8.75;4.00;;;;;;;;;;5052168;28;20060;-67
2023/10/21 05:08:46;;;;;;;7.30;3.60;;;;;;;;;;5063299;28;20060;-66
2023/10/21 05:11:12;;;;;;;5.88;3.35;;;;;;;;;;5059641;28;20040;-65
2023/10/21 05:13:38;;;;;;;4.47;3.00;;;;;;;;;;5064341;28;20052;-65
2023/10/21 05:16:04;;;;;;;6.72;3.30;;;;;;;;;;5042335;28;20469;-66
2023/10/21 05:18:31;;;;;;;6.00;4.47;;;;;;;;;;5070251;28;20040;-66
2023/10/21 05:20:57;;;;;;;5.38;3.83;;;;;;;;;;5071237;28;20072;-66
2023/10/21 05:23:23;;;;;;;5.57;4.05;;;;;;;;;;5049587;28;20166;-64
2023/10/21 05:25:49;;;;;;;5.70;3.78;;;;;;;;;;5063227;28;20084;-66
2023/10/21 05:28:15;;;;;;;5.80;3.95;;;;;;;;;;5067044;28;20041;-66
2023/10/21 05:30:43;;;;;;;7.82;4.03;;;;;;;;;;5070350;28;20158;-67
2023/10/21 05:33:10;;;;;;;8.95;4.85;;;;;;;;;;5070171;28;20492;-66
2023/10/21 05:35:36;;;;;;;5.35;4.20;;;;;;;;;;5065839;28;20485;-65
2023/10/21 05:38:03;;;;;;;5.75;4.00;;;;;;;;;;5069205;28;20093;-67
2023/10/21 05:40:29;;;;;;;8.45;5.25;;;;;;;;;;5064272;28;20130;-65
2023/10/21 05:42:56;;;;;;;7.93;4.45;;;;;;;;;;5069270;28;20085;-66
2023/10/21 05:45:23;;;;;;;7.15;4.30;;;;;;;;;;5067969;28;20045;-67
2023/10/21 05:47:50;;;;;;;7.63;5.05;;;;;;;;;;5059407;28;20055;-67
2023/10/21 05:50:21;;;;;;;9.18;5.22;;;;;;;;;;5067040;28;20041;-65
2023/10/21 05:52:47;;;;;;;8.07;5.03;;;;;;;;;;5051947;28;20049;-67
2023/10/21 05:55:13;;;;;;;7.72;4.80;;;;;;;;;;5057279;28;20044;-66
2023/10/21 05:57:40;;;;;;;7.43;4.82;;;;;;;;;;5067079;28;20439;-66
2023/10/21 06:00:07;;;;;;;6.00;4.07;;;;;;;;;;5070037;28;20435;-67
2023/10/21 06:02:33;;;;;;;7.55;5.38;;;;;;;;;;5062600;28;20726;-67
2023/10/21 06:04:59;;;;;;;7.13;4.55;;;;;;;;;;5067699;28;20036;-68
2023/10/21 06:07:25;;;;;;;10.73;5.93;;;;;;;;;;5062708;28;20059;-67
2023/10/21 06:09:53;;;;;;;7.13;4.78;;;;;;;;;;5050735;28;20071;-67
2023/10/21 06:12:19;;;;;;;9.35;4.93;;;;;;;;;;5059082;28;20532;-66
2023/10/21 06:14:45;;;;;;;9.07;5.50;;;;;;;;;;5060630;28;20047;-67
2023/10/21 06:17:12;;;;;;;7.82;5.22;;;;;;;;;;5062373;28;20044;-67
2023/10/21 06:19:39;;;;;;;7.53;5.03;;;;;;;;;;5065439;28;20452;-67
2023/10/21 06:22:05;;;;;;;8.73;5.43;;;;;;;;;;5054832;28;20047;-67
2023/10/21 06:24:31;;;;;;;8.90;5.78;;;;;;;;;;5066525;28;20149;-68
2023/10/21 06:26:58;;;;;;;8.27;6.07;;;;;;;;;;5062744;28;20450;-65
2023/10/21 06:29:25;;;;;;;11.10;6.60;;;;;;;;;;5047524;28;20051;-65
2023/10/21 06:31:52;;;;;;;8.10;5.85;;;;;;;;;;5063421;28;20032;-64
2023/10/21 06:34:18;;;;;;;8.00;5.57;;;;;;;;;;5066283;28;20063;-65
2023/10/21 06:36:44;;;;;;;8.73;6.05;;;;;;;;;;5062697;28;20029;-65
2023/10/21 06:39:10;;;;;;;9.25;5.88;;;;;;;;;;5049665;28;20044;-67
2023/10/21 06:41:36;;;;;;;8.65;5.68;;;;;;;;;;5067662;28;20068;-66
2023/10/21 06:44:02;;;;;;;7.68;6.18;;;;;;;;;;5066022;28;20059;-66
2023/10/21 06:46:28;;;;;;;9.77;6.68;;;;;;;;;;5065250;28;20036;-66
2023/10/21 06:48:55;;;;;;;7.63;4.38;;;;;;;;;;5068340;28;20134;-66
2023/10/21 06:51:21;;;;;;;9.10;6.10;;;;;;;;;;5067108;28;20048;-65
2023/10/21 06:53:47;;;;;;;8.13;6.18;;;;;;;;;;5061624;28;20058;-66
2023/10/21 06:56:13;;;;;;;9.25;6.15;;;;;;;;;;5068179;28;20462;-66
2023/10/21 06:58:40;;;;;;;9.98;6.07;;;;;;;;;;5044745;28;20032;-66
2023/10/21 07:01:06;;;;;;;13.68;7.32;;;;;;;;;;5062834;28;20107;-66
2023/10/21 07:03:33;;;;;;;8.70;5.85;;;;;;;;;;5064782;28;20054;-67
2023/10/21 07:05:59;;;;;;;10.43;6.57;;;;;;;;;;5045980;28;20072;-66
2023/10/21 07:08:25;;;;;;;6.63;5.70;;;;;;;;;;5063462;28;20068;-67
2023/10/21 07:10:53;;;;;;;8.55;5.95;;;;;;;;;;5029663;28;20052;-66
2023/10/21 07:13:20;;;;;;;9.63;6.45;;;;;;;;;;5058802;28;20049;-67
2023/10/21 07:15:47;;;;;;;6.90;5.95;;;;;;;;;;5046020;28;20036;-66
2023/10/21 07:18:14;;;;;;;10.23;6.45;;;;;;;;;;5063633;28;20137;-67
2023/10/21 07:20:40;;;;;;;8.57;5.65;;;;;;;;;;5044136;28;20424;-66
2023/10/21 07:23:08;;;;;;;10.52;5.90;;;;;;;;;;5045019;28;20032;-65
2023/10/21 07:25:36;;;;;;;9.73;6.93;;;;;;;;;;5065552;28;20048;-67
2023/10/21 07:28:03;;;;;;;8.73;5.53;;;;;;;;;;5065006;28;20115;-66
2023/10/21 07:30:29;;;;;;;9.18;5.45;;;;;;;;;;5064116;28;20063;-66
2023/10/21 07:32:55;;;;;;;8.20;5.88;;;;;;;;;;5063778;28;20133;-66
2023/10/21 07:35:22;;;;;;;8.57;5.20;;;;;;;;;;5065594;28;20742;-65
2023/10/21 07:37:48;;;;;;;7.55;5.07;;;;;;;;;;5059222;28;20051;-66
2023/10/21 07:40:14;;;;;;;8.48;6.28;;;;;;;;;;5063834;28;20041;-66
2023/10/21 07:42:41;;;;;;;7.85;5.60;;;;;;;;;;5045082;28;20040;-66
2023/10/21 07:45:07;;;;;;;7.97;5.60;;;;;;;;;;5053917;28;20102;-67
2023/10/21 07:47:33;;;;;;;9.10;6.15;;;;;;;;;;5059789;28;20051;-67
2023/10/21 07:50:05;;;;;;;7.18;5.18;;;;;;;;;;5044696;28;20051;-67
2023/10/21 07:52:31;;;;;;;10.00;5.68;;;;;;;;;;5059240;28;20113;-67
2023/10/21 07:54:57;;;;;;;8.30;4.68;;;;;;;;;;5059834;28;20098;-66
2023/10/21 07:57:24;;;;;;;8.50;4.78;;;;;;;;;;5064994;28;20510;-67
2023/10/21 07:59:50;;;;;;;9.70;5.47;;;;;;;;;;5061647;28;20115;-67
2023/10/21 08:02:16;;;;;;;8.85;5.90;;;;;;;;;;5064090;28;20601;-66
2023/10/21 08:04:44;;;;;;;9.43;6.10;;;;;;;;;;5060189;28;20089;-66
2023/10/21 08:07:11;;;;;;;6.68;5.15;;;;;;;;;;5062003;28;20658;-67
2023/10/21 08:09:38;;;;;;;9.85;5.78;;;;;;;;;;5053816;28;20106;-66
2023/10/21 08:12:05;;;;;;;8.63;5.00;;;;;;;;;;5059065;28;20341;-67
2023/10/21 08:14:32;;;;;;;7.32;4.53;;;;;;;;;;5054683;28;20048;-67
2023/10/21 08:17:02;;;;;;;9.68;5.07;;;;;;;;;;5055894;28;20060;-66
2023/10/21 08:19:30;;;;;;;6.32;3.92;;;;;;;;;;5060256;28;20052;-66
2023/10/21 08:21:56;;;;;;;7.15;4.22;;;;;;;;;;5066485;28;20037;-66
2023/10/21 08:24:23;;;;;;;6.97;3.97;;;;;;;;;;5063652;28;20563;-65
2023/10/21 08:26:49;;;;;;;6.18;3.70;;;;;;;;;;5063787;28;20094;-66
2023/10/21 08:29:15;;;;;;;6.47;4.28;;;11.30;99.90;;;;;;5055612;28;20115;-66
2023/10/21 08:31:41;;;;;;;7.60;4.70;;;;;;;;;;5066735;28;20471;-67
2023/10/21 08:34:12;;;;;;;6.22;4.15;;;;;;;;;;5066818;28;20245;-66
2023/10/21 08:36:39;;;;;;;5.68;4.00;;;;;;;;;;5064492;28;20052;-66
2023/10/21 08:39:07;;;;;;;8.35;4.30;;;;;;;;;;5046409;28;20331;-67
2023/10/21 08:41:40;;;;;;;7.28;4.03;;;12.30;99.90;;;;;;5064313;28;20044;-66
2023/10/21 08:44:07;;;;;;;;;;;12.50;99.90;;;;;;5057138;28;20128;-67
2023/10/21 08:46:33;;;;;;;6.68;4.03;;;12.50;99.90;;;;;;5063692;28;19927;-67
2023/10/21 08:49:03;;;;;;;7.85;4.75;;;;;;;;;;5064113;28;20062;-67
2023/10/21 08:51:30;;;;;;;5.63;3.63;;;;;;;;;;5066173;28;20391;-66
2023/10/21 08:53:59;;;;;;;8.50;5.03;;;;;;;;;;5069873;28;20055;-67
2023/10/21 08:56:27;;;;;;;10.15;4.10;;;;;;;;;;5071127;28;20479;-66
2023/10/21 08:58:57;;;;;;;7.93;4.55;;;;;;;;;;5070180;28;20058;-66
2023/10/21 09:01:26;;;;;;;5.53;4.15;;;;;;;;;;5069256;28;20383;-68
2023/10/21 09:03:52;;;;;;;6.72;4.20;;;;;;;;;;5051399;28;20036;-66
2023/10/21 09:06:19;;;;;;;7.70;4.60;;;;;;;;;;5052376;28;20291;-65
2023/10/21 09:08:47;;;;;;;5.00;4.30;;;;;;;;;;5069526;28;20539;-67
2023/10/21 09:11:33;;;;;;;8.93;4.65;;;;;;;;;;5071062;28;20044;-67
2023/10/21 09:13:59;;;;;;;6.07;4.20;;;12.60;99.90;;;;;;5063047;28;20039;-67
2023/10/21 09:16:31;;;;;;;6.65;3.85;;;13.50;99.90;;;;;;5055624;28;20119;-67
2023/10/21 09:19:08;;;;;;;5.32;3.58;;;13.50;99.90;;;;;;5067385;28;20102;-66
2023/10/21 09:21:45;;;;;;;7.10;3.75;;;13.60;99.90;;;;;;5070120;28;20047;-67
2023/10/21 09:24:22;;;;;;;10.57;3.63;;;13.70;99.90;;;;;;5081656;28;20043;-67
2023/10/21 09:26:49;;;;;;;5.57;3.15;;;13.70;99.90;;;;;;5083019;28;20044;-67
2023/10/21 09:29:22;;;;;;;4.93;3.35;;;13.80;99.90;;;;;;5077773;28;20488;-66
2023/10/21 09:31:48;;;;;;;7.40;3.83;;;;;;;;;;5072959;28;20043;-65
2023/10/21 09:34:24;;;;;;;5.25;3.58;;;;;;;;;;5078323;28;20049;-66
2023/10/21 09:36:51;;;;;;;6.07;3.50;;;;;;;;;;5069196;28;20581;-66
2023/10/21 09:39:17;;;;;;;6.28;3.60;;;;;;;;;;5066811;28;20488;-66
2023/10/21 09:41:44;;;;;;;7.47;3.75;;;13.90;99.90;;;;;;5066452;28;20124;-66
2023/10/21 09:44:13;;;;;;;6.07;3.22;;;14.10;99.90;;;;;;5063612;28;20041;-67
2023/10/21 09:46:40;;;;;;;4.88;3.70;;;14.00;99.90;;;;;;5064753;28;20372;-66
2023/10/21 09:49:06;;;;;;;5.53;3.08;;;14.10;99.90;;;;;;5054927;28;20349;-68
2023/10/21 09:51:36;;;;;;;5.88;2.97;;;14.10;99.90;;;;;;5045108;28;20040;-66
2023/10/21 09:54:11;;;;;;;4.10;2.33;;;14.10;99.90;;;;;;5066393;28;20429;-66
2023/10/21 09:56:39;;;;;;;6.45;3.15;;;14.10;99.90;;;;;;5065321;28;20047;-66
2023/10/21 09:59:06;;;;;;;4.07;2.72;;;14.10;99.90;;;;;;5056537;28;20040;-66
2023/10/21 10:01:33;;;;;;;5.47;2.45;;;14.10;99.90;;;;;;5068031;28;20036;-66
2023/10/21 10:04:01;;;;;;;4.60;2.92;;;14.10;99.90;;;;;;5048225;28;20043;-66
2023/10/21 10:06:28;;;;;;;5.60;2.72;;;14.10;99.90;;;;;;5043861;28;20442;-66
2023/10/21 10:08:55;;;;;;;5.65;2.85;;;14.10;99.90;;;;;;5050561;28;20393;-66
2023/10/21 10:11:24;;;;;;;4.72;2.42;;;14.10;99.90;;;;;;5049766;28;20040;-66
2023/10/21 10:13:50;;;;;;;4.47;2.63;;;14.10;99.90;;;;;;5064378;28;20055;-65
2023/10/21 10:16:24;;;;;;;5.30;2.88;;;14.10;99.90;;;;;;5054718;28;20037;-65
2023/10/21 10:18:56;;;;;;;4.70;2.35;;;14.10;99.90;;;;;;5065421;28;20052;-65
2023/10/21 10:21:22;;;;;;;4.05;2.85;;;14.10;99.90;;;;;;5068163;28;20546;-65
2023/10/21 10:23:50;;;;;;;3.33;1.98;;;14.00;99.90;;;;;;5048211;28;20029;-64
2023/10/21 10:26:33;;;;;;;4.00;2.38;;;14.00;99.90;;;;;;5053520;28;20041;-65
2023/10/21 10:29:01;;;;;;;6.80;3.08;;;14.00;99.90;;;;;;5065024;28;20037;-65
2023/10/21 10:31:30;;;;;;;5.28;2.13;;;14.00;99.90;;;;;;5026961;28;20488;-65
2023/10/21 10:34:00;;;;;;;3.65;2.13;;;14.00;99.90;;;;;;4997327;28;20359;-65
2023/10/21 10:36:29;;;;;;;3.53;2.05;;;14.00;99.90;;;;;;5063723;28;20116;-65
2023/10/21 10:38:55;;;;;;;4.32;2.03;;;14.00;99.90;;;;;;5012915;28;20051;-65
2023/10/21 10:41:21;;;;;;;5.70;2.05;;;14.00;99.90;;;;;;5015552;28;20143;-65
2023/10/21 10:43:56;;;;;;;2.75;2.05;;;14.00;99.90;;;;;;5041064;28;20044;-66
2023/10/21 10:46:23;;;;;;;3.90;1.55;;;14.00;99.90;;;;;;5050737;28;20064;-65
2023/10/21 10:48:50;;;;;;;4.03;1.63;;;14.00;99.90;;;;;;5000699;28;20068;-66
2023/10/21 10:51:17;;;;;;;2.72;1.40;;;14.00;99.90;;;;;;5013482;28;20040;-66
2023/10/21 10:53:48;;;;;;;2.17;1.63;;;14.10;99.90;;;;;;5071052;28;20547;-66
2023/10/21 10:56:21;;;;;;;3.30;1.38;;;14.10;99.90;;;;;;5081564;28;20051;-65
2023/10/21 10:58:47;;;;;;;1.70;1.17;;;14.10;99.90;;;;;;5054552;28;20268;-65
2023/10/21 11:01:27;;;;;;;2.75;1.98;;;14.10;99.90;;;;;;5064289;28;20037;-66
2023/10/21 11:03:56;;;;;;;2.15;1.40;;;14.10;99.90;;;;;;5067177;28;20055;-66
2023/10/21 11:06:23;;;;;;;3.90;1.48;;;14.10;99.90;;;;;;5067242;28;20577;-66
2023/10/21 11:08:53;;;;;;;3.60;1.48;;;14.10;99.90;;;;;;5068001;28;20101;-66
2023/10/21 11:11:19;;;;;;;2.45;1.42;;;14.10;99.90;;;;;;5050718;28;20491;-66
2023/10/21 11:13:46;;;;;;;2.33;1.23;;;14.10;99.90;;;;;;5062450;28;20044;-66
2023/10/21 11:16:12;;;;;;;2.03;1.30;;;14.10;99.90;;;;;;5061489;28;20049;-65
2023/10/21 11:18:39;;;;;;;2.53;1.40;;;14.10;99.90;;;;;;5068497;28;20045;-65
2023/10/21 11:21:07;;;;;;;1.33;1.10;;;14.10;99.90;;;;;;5066389;28;20043;-65
2023/10/21 11:23:35;;;;;;;2.67;1.35;;;14.20;99.90;;;;;;5067081;28;20403;-65
2023/10/21 11:26:01;;;;;;;3.22;1.63;;;14.20;99.90;;;;;;5049802;28;20511;-65
2023/10/21 11:28:28;;;;;;;4.13;1.33;;;14.20;99.90;;;;;;5064004;28;20041;-65
2023/10/21 11:30:55;;;;;;;2.20;1.52;;;14.20;99.90;;;;;;5067560;28;20041;-65
2023/10/21 11:33:21;;;;;;;2.22;1.42;;;14.20;99.90;;;;;;5066316;28;20570;-64
2023/10/21 11:35:48;;;;;;;1.98;1.35;;;14.30;99.90;;;;;;5065142;28;20143;-65
2023/10/21 11:38:17;;;;;;;2.35;1.73;;;14.30;99.90;;;;;;5050551;28;20115;-65
2023/10/21 11:40:44;;;;;;;3.35;1.23;;;14.30;99.90;;;;;;5067262;28;20028;-65
2023/10/21 11:43:16;;;;;;;1.65;1.20;;;14.40;99.90;;;;;;5059217;28;20025;-64
2023/10/21 11:45:43;;;;;;;1.90;1.15;;;14.40;99.90;;;;;;5047424;28;20107;-65
2023/10/21 11:48:09;;;;;;;2.60;1.50;;;14.40;99.90;;;;;;5065965;28;20042;-65
2023/10/21 11:50:42;;;;;;;3.78;1.20;;;14.40;99.90;;;;;;5068590;28;20465;-65
2023/10/21 11:53:08;;;;;;;1.67;1.20;;;14.40;99.90;;;;;;5065022;28;20070;-65
2023/10/21 12:19:16;;;;;;;2.38;1.45;;;14.50;99.90;;;;;;5053301;28;20605;-65
2023/10/21 12:26:57;;;;;;;2.25;1.15;;;14.60;99.90;;;;;;5057720;28;20072;-64
2023/10/21 12:39:44;;;;;;;2.25;1.10;;;15.00;99.90;;;;;;5064853;28;20108;-64
2023/10/21 12:42:34;;;;;;;2.85;1.42;;;15.20;99.90;;;;;;5065256;28;20041;-63
2023/10/21 12:45:03;;;;;;;2.90;1.27;;;15.30;99.90;;;;;;5052747;28;20044;-64
2023/10/21 12:47:29;;;;;;;3.30;1.67;;;15.60;99.90;;;;;;5061228;28;20432;-64
2023/10/21 12:49:57;;;;;;;2.15;0.98;;;15.80;99.90;;;;;;5067057;28;20044;-64
2023/10/21 12:52:24;;;;;;;2.78;1.55;;;16.00;99.90;;;;;;5060574;28;20041;-64
2023/10/21 12:54:53;;;;;;;2.30;1.13;;;16.20;99.90;;;;;;5063775;28;20057;-63
2023/10/21 12:57:19;;;;;;;1.83;1.08;;;;;;;;;;5069670;28;20036;-63
2023/10/21 12:59:45;;;;;;;1.75;0.90;;;;;;;;;;5068114;28;20033;-64
2023/10/21 13:02:12;;;;;;;2.22;1.10;;;;;;;;;;5068039;28;20173;-63
2023/10/21 13:04:40;;;;;;;2.70;1.50;;;;;;;;;;5068087;28;20037;-63
2023/10/21 13:07:06;;;;;;;2.67;1.23;;;;;;;;;;5068195;28;20048;-64
2023/10/21 13:09:33;;;;;;;2.00;1.42;;;;;;;;;;5068930;28;20518;-65
2023/10/21 13:12:00;;;;;;;1.80;1.33;;;;;;;;;;5066837;28;20076;-64
2023/10/21 13:14:27;;;;;;;3.25;1.10;;;;;;;;;;5064083;28;20059;-65
2023/10/21 13:16:53;;;;;;;1.55;0.80;;;;;;;;;;5049573;28;20144;-65
2023/10/21 13:19:21;;;;;;;2.83;1.27;;;;;;;;;;5067211;28;20074;-64
2023/10/21 13:21:47;;;;;;;1.85;1.10;;;;;;;;;;5047869;28;20043;-64
2023/10/21 13:24:13;;;;;;;2.42;1.23;;;;;;;;;;5069159;28;20028;-64
2023/10/21 13:26:39;;;;;;;2.13;0.95;;;;;;;;;;5050765;28;20262;-64
2023/10/21 13:29:06;;;;;;;4.13;1.45;;;;;;;;;;5068024;28;20259;-64
2023/10/21 13:31:33;;;;;;;2.17;0.93;;;;;;;;;;5071143;28;20044;-65
2023/10/21 13:34:02;;;;;;;1.10;0.75;;;;;;;;;;5068376;28;20271;-65
2023/10/21 13:36:29;;;;;;;2.05;1.00;;;;;;;;;;5067786;28;20439;-64
2023/10/21 13:38:56;;;;;;;3.15;1.10;;;;;;;;;;5073974;28;20032;-64
2023/10/21 13:41:22;;;;;;;1.60;0.98;;;;;;;;;;5068304;28;20067;-64
2023/10/21 13:43:48;;;;;;;3.83;1.50;;;;;;;;;;5030450;28;20079;-65
2023/10/21 13:46:16;;;;;;;1.02;0.90;;;;;;;;;;5056544;28;20048;-65
2023/10/21 13:48:42;;;;;;;1.48;1.00;;;;;;;;;;5067233;28;20045;-64
2023/10/21 13:51:09;;;;;;;2.90;1.10;;;;;;;;;;5057076;28;20123;-65
2023/10/21 13:53:35;;;;;;;2.30;1.13;;;;;;;;;;5049171;28;20120;-65
2023/10/21 13:56:02;;;;;;;1.92;1.02;;;;;;;;;;5059913;28;20135;-65
2023/10/21 13:58:30;;;;;;;2.35;1.05;;;;;;;;;;5062693;28;20100;-64
2023/10/21 14:00:59;;;;;;;1.75;0.93;;;;;;;;;;5065007;28;20047;-64
2023/10/21 14:03:25;;;;;;;2.45;0.98;;;;;;;;;;5063716;28;20079;-65
2023/10/21 14:05:52;;;;;;;2.45;1.15;;;;;;;;;;5064279;28;20479;-64
2023/10/21 14:08:19;;;;;;;2.58;1.08;;;;;;;;;;5065227;28;20240;-65
2023/10/21 14:10:46;;;;;;;3.88;1.00;;;;;;;;;;5066969;28;20067;-64
2023/10/21 14:13:16;;;;;;;2.83;0.80;;;16.40;99.90;;;;;;5062214;28;20047;-64
2023/10/21 14:15:50;;;;;;;2.78;1.15;;;17.20;99.90;;;;;;5063549;28;20044;-66
2023/10/21 14:18:17;;;;;;;1.15;0.93;;;17.20;99.90;;;;;;5066255;28;20050;-63
2023/10/21 14:20:43;;;;;;;1.42;1.00;;;17.20;99.90;;;;;;5065671;28;20082;-63
2023/10/21 14:23:18;;;;;;;2.05;1.40;;;17.20;99.90;;;;;;5050985;28;20040;-64
2023/10/21 14:25:49;;;;;;;4.55;1.20;;;17.20;99.90;;;;;;5065543;28;20041;-64
2023/10/21 14:28:16;;;;;;;1.17;0.88;;;17.10;99.90;;;;;;5065755;28;20132;-64
2023/10/21 14:30:48;;;;;;;4.07;1.20;;;17.10;99.90;;;;;;5068334;28;20600;-65
2023/10/21 14:33:21;;;;;;;2.92;1.10;;;17.10;99.90;;;;;;5063637;28;20036;-64
2023/10/21 14:35:50;;;;;;;2.17;1.23;;;17.00;99.90;;;;;;5048092;28;20043;-63
2023/10/21 14:38:17;;;;;;;1.52;0.90;;;17.00;99.90;;;;;;5048588;28;20067;-64
2023/10/21 14:40:44;;;;;;;3.55;1.10;;;17.00;99.90;;;;;;5063819;28;20564;-63
2023/10/21 14:43:12;;;;;;;1.50;0.73;;;16.90;99.90;;;;;;5038713;28;20347;-63
2023/10/21 14:45:40;;;;;;;1.73;1.05;;;16.90;99.90;;;;;;5030544;28;20109;-64
2023/10/21 14:48:07;;;;;;;1.98;1.17;;;16.90;99.90;;;;;;5061830;28;20044;-65